Time;durP1;ratioP1;P1;durP2;ratioP2;P2;SDS_P1;SDS_P2;PMS_P1;PMS_P2;Temp;Humidity;BMP_temperature;BMP_pressure;BME280_temperature;BME280_humidity;BME280_pressure;Samples;Min_cycle;Max_cycle;Signal;HPM_P1;HPM_P2
2022/10/28 00:01:25;;;;;;;10.88;4.95;;;18.00;99.90;;;;;;5055799;28;20181;-63
2022/10/28 00:03:54;;;;;;;9.77;4.95;;;18.00;99.90;;;;;;5055629;28;20543;-63
2022/10/28 00:06:30;;;;;;;9.48;4.47;;;17.90;99.90;;;;;;5055514;28;20201;-63
2022/10/28 00:08:56;;;;;;;10.20;4.45;;;17.90;99.90;;;;;;5055564;28;20288;-63
2022/10/28 00:11:28;;;;;;;7.25;4.80;;;17.90;99.90;;;;;;5056166;28;20644;-64
2022/10/28 00:13:55;;;;;;;14.50;4.93;;;17.90;99.90;;;;;;5054805;28;20163;-64
2022/10/28 00:16:30;;;;;;;18.40;5.00;;;17.90;99.90;;;;;;5055431;28;20257;-64
2022/10/28 00:18:58;;;;;;;15.38;5.57;;;17.90;99.90;;;;;;5055490;28;20182;-64
2022/10/28 00:21:29;;;;;;;10.60;4.75;;;17.90;99.90;;;;;;5055402;28;20171;-64
2022/10/28 00:23:55;;;;;;;14.52;4.65;;;18.00;99.90;;;;;;5055481;28;20174;-65
2022/10/28 00:26:27;;;;;;;13.18;4.95;;;18.00;99.90;;;;;;5055384;28;20225;-63
2022/10/28 00:29:02;;;;;;;12.25;4.90;;;18.00;99.90;;;;;;5055214;28;20183;-64
2022/10/28 00:31:29;;;;;;;12.57;4.63;;;18.00;99.90;;;;;;5055159;28;20240;-63
2022/10/28 00:33:57;;;;;;;10.52;4.75;;;18.00;99.90;;;;;;5055058;28;20171;-65
2022/10/28 00:36:28;;;;;;;10.00;4.78;;;18.00;99.90;;;;;;5055038;28;20232;-64
2022/10/28 00:38:55;;;;;;;17.98;5.30;;;18.00;99.90;;;;;;5055028;28;20167;-64
2022/10/28 00:41:30;;;;;;;9.00;4.50;;;18.10;99.90;;;;;;5054996;28;20182;-64
2022/10/28 00:43:58;;;;;;;9.25;4.50;;;18.20;99.90;;;;;;5054943;28;20166;-64
2022/10/28 00:46:36;;;;;;;13.32;4.57;;;18.10;99.90;;;;;;5055375;28;20217;-64
2022/10/28 00:49:16;;;;;;;14.60;5.10;;;18.20;99.90;;;;;;5052743;28;20178;-63
2022/10/28 00:51:44;;;;;;;16.73;5.25;;;18.30;99.90;;;;;;5055899;28;20575;-64
2022/10/28 00:54:12;;;;;;;15.07;4.68;;;18.30;99.90;;;;;;5054679;28;20167;-63
2022/10/28 00:56:42;;;;;;;11.40;4.57;;;18.50;99.90;;;;;;5054993;28;20174;-63
2022/10/28 00:59:17;;;;;;;11.40;4.38;;;18.50;99.90;;;;;;5054533;28;20213;-64
2022/10/28 01:01:43;;;;;;;13.43;4.40;;;18.40;99.90;;;;;;5054593;28;20170;-63
2022/10/28 01:04:10;;;;;;;19.75;4.93;;;18.40;99.90;;;;;;5053238;28;20677;-67
2022/10/28 01:06:36;;;;;;;12.30;4.35;;;18.60;99.90;;;;;;5054349;28;20276;-68
2022/10/28 01:09:02;;;;;;;6.90;4.50;;;18.60;99.90;;;;;;5054724;28;20182;-68
2022/10/28 01:12:05;;;;;;;10.00;4.45;;;18.50;99.90;;;;;;5054978;28;20528;-68
2022/10/28 01:14:54;;;;;;;13.77;4.22;;;18.60;99.90;;;;;;5054174;28;20190;-67
2022/10/28 01:17:38;;;;;;;8.60;3.90;;;18.70;99.90;;;;;;5052987;28;20174;-68
2022/10/28 01:20:42;;;;;;;11.48;4.68;;;18.70;99.90;;;;;;5054357;28;20170;-68
2022/10/28 01:23:29;;;;;;;13.93;5.60;;;18.70;99.90;;;;;;5032141;28;20182;-68
2022/10/28 01:26:32;;;;;;;23.30;5.47;;;18.60;99.90;;;;;;5032008;28;20194;-68
2022/10/28 01:29:06;;;;;;;10.00;4.45;;;18.50;99.90;;;;;;5051085;28;20690;-68
2022/10/28 01:31:39;;;;;;;12.35;4.65;;;18.40;99.90;;;;;;5054092;28;20174;-68
2022/10/28 01:34:27;;;;;;;9.50;4.85;;;18.30;99.90;;;;;;5053943;28;20158;-68
2022/10/28 01:37:00;;;;;;;8.55;4.10;;;18.30;99.90;;;;;;5054227;28;20208;-68
2022/10/28 01:39:48;;;;;;;17.85;5.07;;;18.30;99.90;;;;;;5053942;28;20224;-68
2022/10/28 01:42:37;;;;;;;11.77;4.72;;;18.30;99.90;;;;;;5054110;28;20174;-68
2022/10/28 01:45:08;;;;;;;8.55;4.55;;;18.20;99.90;;;;;;5053572;28;20235;-68
2022/10/28 01:47:42;;;;;;;11.32;4.47;;;18.20;99.90;;;;;;5053638;28;20212;-68
2022/10/28 01:50:28;;;;;;;7.07;4.38;;;18.20;99.90;;;;;;5054258;28;20170;-68
2022/10/28 01:52:58;;;;;;;7.82;4.50;;;18.10;99.90;;;;;;5054266;28;20163;-68
2022/10/28 01:55:32;;;;;;;11.18;4.25;;;18.10;99.90;;;;;;5053565;28;20224;-68
2022/10/28 01:58:00;;;;;;;14.65;5.00;;;18.00;99.90;;;;;;5053468;28;20276;-68
2022/10/28 02:00:27;;;;;;;13.63;4.57;;;18.00;99.90;;;;;;5053476;28;20174;-68
2022/10/28 02:02:54;;;;;;;13.15;4.93;;;17.90;99.90;;;;;;5053843;28;20186;-68
2022/10/28 02:05:41;;;;;;;10.40;4.45;;;17.90;99.90;;;;;;5054152;28;20198;-68
2022/10/28 02:08:18;;;;;;;13.38;5.05;;;17.80;99.90;;;;;;5053466;28;20256;-68
2022/10/28 02:10:59;;;;;;;13.73;4.60;;;17.80;99.90;;;;;;5052263;28;20178;-68
2022/10/28 02:13:31;;;;;;;9.20;4.22;;;17.80;99.90;;;;;;5053580;28;20166;-68
2022/10/28 02:16:12;;;;;;;13.23;4.88;;;17.70;99.90;;;;;;5053575;28;20560;-68
2022/10/28 02:19:09;;;;;;;8.32;3.90;;;17.70;99.90;;;;;;5053627;28;20593;-68
2022/10/28 02:21:49;;;;;;;9.32;4.07;;;17.70;99.90;;;;;;5053307;28;20189;-68
2022/10/28 02:24:22;;;;;;;14.23;4.60;;;17.70;99.90;;;;;;5053157;28;20256;-68
2022/10/28 02:27:01;;;;;;;9.40;4.10;;;17.70;99.90;;;;;;5053225;28;20277;-69
2022/10/28 02:29:44;;;;;;;9.25;4.88;;;17.70;99.90;;;;;;5053010;28;20676;-68
2022/10/28 02:32:18;;;;;;;10.65;4.03;;;17.70;99.90;;;;;;5053668;28;20216;-68
2022/10/28 02:34:47;;;;;;;7.00;3.67;;;17.70;99.90;;;;;;5053037;28;20255;-67
2022/10/28 02:37:26;;;;;;;13.82;4.65;;;17.80;99.90;;;;;;5053065;28;20214;-68
2022/10/28 02:40:01;;;;;;;13.10;4.55;;;17.80;99.90;;;;;;5053723;28;20158;-68
2022/10/28 02:42:32;;;;;;;14.88;4.40;;;17.80;99.90;;;;;;5053396;28;20162;-68
2022/10/28 02:45:20;;;;;;;15.13;4.50;;;17.90;99.90;;;;;;5052935;28;20276;-68
2022/10/28 02:48:02;;;;;;;8.07;5.25;;;17.90;99.90;;;;;;5053027;28;20198;-68
2022/10/28 02:50:33;;;;;;;13.90;4.28;;;18.00;99.90;;;;;;5053625;28;20162;-67
2022/10/28 02:53:02;;;;;;;11.68;4.43;;;18.00;99.90;;;;;;5053592;28;20246;-68
2022/10/28 02:55:36;;;;;;;11.38;4.30;;;18.00;99.90;;;;;;5053204;28;20285;-67
2022/10/28 02:58:02;;;;;;;8.43;3.90;;;18.10;99.90;;;;;;5053046;28;20194;-68
2022/10/28 03:00:28;;;;;;;11.95;4.18;;;18.10;99.90;;;;;;5052874;28;20228;-68
2022/10/28 03:02:53;;;;;;;11.05;4.00;;;18.10;99.90;;;;;;5052951;28;20179;-68
2022/10/28 03:05:19;;;;;;;10.80;4.18;;;18.10;99.90;;;;;;5053102;28;20198;-68
2022/10/28 03:07:45;;;;;;;10.27;4.40;;;18.10;99.90;;;;;;5051468;28;20237;-67
2022/10/28 03:10:11;;;;;;;10.43;3.88;;;18.10;99.90;;;;;;5052960;28;20253;-68
2022/10/28 03:12:36;;;;;;;8.20;4.00;;;18.10;99.90;;;;;;5053882;28;20299;-68
2022/10/28 03:15:03;;;;;;;11.25;4.60;;;18.10;99.90;;;;;;5056519;28;20654;-68
2022/10/28 03:17:29;;;;;;;6.88;3.60;;;18.10;99.90;;;;;;5056893;28;20171;-67
2022/10/28 03:19:54;;;;;;;9.02;3.78;;;18.10;99.90;;;;;;5055396;28;20227;-68
2022/10/28 03:22:20;;;;;;;9.30;4.55;;;18.10;99.90;;;;;;5055268;28;20190;-68
2022/10/28 03:24:46;;;;;;;9.73;3.90;;;18.00;99.90;;;;;;5055123;28;20206;-68
2022/10/28 03:27:12;;;;;;;7.43;3.90;;;18.00;99.90;;;;;;5056355;28;20202;-68
2022/10/28 03:29:37;;;;;;;7.90;3.75;;;17.90;99.90;;;;;;5055301;28;20197;-68
2022/10/28 03:32:03;;;;;;;8.23;4.30;;;17.80;99.90;;;;;;5056345;28;20170;-68
2022/10/28 03:34:29;;;;;;;8.77;4.13;;;17.70;99.90;;;;;;5056426;28;20202;-68
2022/10/28 03:36:54;;;;;;;7.57;4.10;;;17.60;99.90;;;;;;5054961;28;20705;-67
2022/10/28 03:39:20;;;;;;;7.28;3.90;;;17.50;99.90;;;;;;5056783;28;20175;-68
2022/10/28 03:41:46;;;;;;;12.38;4.57;;;17.40;99.90;;;;;;5056104;28;20179;-68
2022/10/28 03:44:12;;;;;;;9.40;4.05;;;17.30;99.90;;;;;;5054667;28;20228;-68
2022/10/28 03:46:37;;;;;;;12.00;4.97;;;17.20;99.90;;;;;;5056001;28;20226;-68
2022/10/28 03:49:03;;;;;;;12.55;4.45;;;17.10;99.90;;;;;;5056094;28;20170;-68
2022/10/28 03:51:29;;;;;;;8.95;4.22;;;17.20;99.90;;;;;;5055984;28;20254;-69
2022/10/28 03:53:55;;;;;;;8.75;4.32;;;17.20;99.90;;;;;;5054785;28;20174;-69
2022/10/28 03:56:21;;;;;;;10.68;4.22;;;17.20;99.90;;;;;;5056040;28;20182;-69
2022/10/28 03:58:47;;;;;;;8.80;4.55;;;17.40;99.90;;;;;;5055859;28;20209;-69
2022/10/28 04:01:13;;;;;;;18.02;4.90;;;17.50;99.90;;;;;;5056281;28;20635;-69
2022/10/28 04:03:39;;;;;;;11.57;4.20;;;17.60;99.90;;;;;;5055960;28;20178;-69
2022/10/28 04:06:05;;;;;;;7.93;3.90;;;17.60;99.90;;;;;;5054519;28;20238;-70
2022/10/28 04:08:31;;;;;;;15.38;4.00;;;17.60;99.90;;;;;;5056727;28;20171;-70
2022/10/28 04:10:56;;;;;;;9.15;4.20;;;17.40;99.90;;;;;;5058432;28;20194;-68
2022/10/28 04:13:27;;;;;;;8.90;4.60;;;17.30;99.90;;;;;;5055706;28;20236;-68
2022/10/28 04:15:53;;;;;;;8.45;3.92;;;17.20;99.90;;;;;;5054549;28;20206;-68
2022/10/28 04:18:19;;;;;;;11.55;4.43;;;17.20;99.90;;;;;;5055923;28;20179;-68
2022/10/28 04:20:45;;;;;;;12.50;4.55;;;17.20;99.90;;;;;;5055629;28;20716;-69
2022/10/28 04:23:17;;;;;;;6.60;3.78;;;17.20;99.90;;;;;;5056477;28;20208;-68
2022/10/28 04:25:43;;;;;;;7.85;4.38;;;17.20;99.90;;;;;;5053466;28;20198;-68
2022/10/28 04:28:09;;;;;;;8.55;4.68;;;17.10;99.90;;;;;;5054478;28;20232;-70
2022/10/28 04:30:34;;;;;;;16.67;5.03;;;17.10;99.90;;;;;;5055389;28;20166;-69
2022/10/28 04:33:00;;;;;;;12.38;5.22;;;17.10;99.90;;;;;;5055349;28;20635;-69
2022/10/28 04:35:26;;;;;;;10.93;4.82;;;17.00;99.90;;;;;;5055342;28;20198;-68
2022/10/28 04:37:51;;;;;;;18.38;5.07;;;17.00;99.90;;;;;;5053963;28;20178;-69
2022/10/28 04:40:17;;;;;;;11.40;4.10;;;17.30;99.90;;;;;;5053859;28;20179;-68
2022/10/28 04:42:43;;;;;;;11.32;4.63;;;17.40;99.90;;;;;;5055103;28;20178;-70
2022/10/28 04:45:09;;;;;;;11.15;5.45;;;17.40;99.90;;;;;;5054013;28;20689;-69
2022/10/28 04:47:35;;;;;;;9.85;4.78;;;17.40;99.90;;;;;;5056036;28;20214;-68
2022/10/28 04:50:02;;;;;;;12.40;4.93;;;17.40;99.90;;;;;;5056148;28;20632;-69
2022/10/28 04:52:28;;;;;;;12.65;4.80;;;17.30;99.90;;;;;;5055494;28;20159;-70
2022/10/28 04:54:54;;;;;;;13.38;5.15;;;17.30;99.90;;;;;;5054738;28;20269;-68
2022/10/28 04:57:19;;;;;;;14.50;4.80;;;17.30;99.90;;;;;;5055077;28;20534;-68
2022/10/28 04:59:45;;;;;;;17.08;6.28;;;17.50;99.90;;;;;;5054990;28;20170;-67
2022/10/28 05:02:11;;;;;;;13.32;4.22;;;17.50;99.90;;;;;;5053344;28;20189;-68
2022/10/28 05:04:37;;;;;;;10.32;4.53;;;17.60;99.90;;;;;;5055146;28;20194;-68
2022/10/28 05:07:02;;;;;;;13.90;5.03;;;17.60;99.90;;;;;;5054750;28;20206;-69
2022/10/28 05:09:28;;;;;;;13.25;4.72;;;17.60;99.90;;;;;;5054474;28;20171;-69
2022/10/28 05:11:54;;;;;;;10.45;4.43;;;17.50;99.90;;;;;;5054377;28;20170;-68
2022/10/28 05:14:20;;;;;;;10.65;4.15;;;17.40;99.90;;;;;;5054155;28;20733;-68
2022/10/28 05:16:45;;;;;;;13.88;4.78;;;17.40;99.90;;;;;;5054827;28;20171;-68
2022/10/28 05:19:11;;;;;;;11.02;4.40;;;17.40;99.90;;;;;;5054821;28;20187;-68
2022/10/28 05:21:37;;;;;;;14.25;4.78;;;17.30;99.90;;;;;;5054142;28;20229;-68
2022/10/28 05:24:03;;;;;;;11.93;5.07;;;17.40;99.90;;;;;;5054027;28;20734;-68
2022/10/28 05:26:29;;;;;;;9.57;4.47;;;17.40;99.90;;;;;;5053917;28;20288;-68
2022/10/28 05:28:54;;;;;;;18.45;5.07;;;17.50;99.90;;;;;;5053976;28;20266;-69
2022/10/28 05:31:20;;;;;;;7.07;4.25;;;17.50;99.90;;;;;;5054113;28;20179;-68
2022/10/28 05:33:46;;;;;;;9.95;4.22;;;17.50;99.90;;;;;;5052824;28;20261;-68
2022/10/28 05:36:12;;;;;;;7.82;4.30;;;17.50;99.90;;;;;;5053460;28;20198;-68
2022/10/28 05:38:38;;;;;;;7.72;4.43;;;17.40;99.90;;;;;;5054449;28;20216;-67
2022/10/28 05:41:04;;;;;;;10.77;4.68;;;17.40;99.90;;;;;;5054450;28;20235;-68
2022/10/28 05:43:30;;;;;;;9.77;5.07;;;17.40;99.90;;;;;;5053695;28;20643;-68
2022/10/28 05:45:57;;;;;;;15.25;5.43;;;17.30;99.90;;;;;;5053629;28;20198;-68
2022/10/28 05:48:23;;;;;;;13.02;4.78;;;17.10;99.90;;;;;;5054305;28;20582;-68
2022/10/28 05:50:48;;;;;;;10.25;5.32;;;17.00;99.90;;;;;;5054149;28;20170;-68
2022/10/28 05:53:14;;;;;;;10.25;4.40;;;16.90;99.90;;;;;;5052450;28;20581;-68
2022/10/28 05:55:40;;;;;;;8.77;4.75;;;16.80;99.90;;;;;;5053588;28;20567;-68
2022/10/28 05:58:06;;;;;;;17.20;5.25;;;16.70;99.90;;;;;;5053583;28;20190;-68
2022/10/28 06:00:32;;;;;;;11.40;4.85;;;16.60;99.90;;;;;;5053432;28;20181;-68
2022/10/28 06:03:03;;;;;;;12.23;4.95;;;16.40;99.90;;;;;;5053598;28;20178;-68
2022/10/28 06:05:29;;;;;;;12.23;4.78;;;16.30;99.90;;;;;;5052169;28;20206;-68
2022/10/28 06:07:54;;;;;;;10.95;5.03;;;16.20;99.90;;;;;;5054016;28;20244;-68
2022/10/28 06:10:20;;;;;;;13.27;5.28;;;16.10;99.90;;;;;;5052237;28;20182;-68
2022/10/28 06:12:46;;;;;;;14.45;5.57;;;16.10;99.90;;;;;;5053492;28;20520;-68
2022/10/28 06:15:12;;;;;;;10.82;5.18;;;16.20;99.90;;;;;;5053466;28;20194;-68
2022/10/28 06:17:37;;;;;;;13.73;5.03;;;16.30;99.90;;;;;;5053828;28;20225;-68
2022/10/28 06:20:04;;;;;;;14.80;4.55;;;16.40;99.90;;;;;;5053379;28;20179;-67
2022/10/28 06:22:30;;;;;;;12.70;5.03;;;16.50;99.90;;;;;;5053634;28;20155;-68
2022/10/28 06:24:56;;;;;;;13.00;4.65;;;16.70;99.90;;;;;;5053723;28;20658;-68
2022/10/28 06:27:21;;;;;;;13.68;5.32;;;17.00;99.90;;;;;;5053489;28;20198;-68
2022/10/28 06:29:47;;;;;;;7.57;4.75;;;17.20;99.90;;;;;;5053261;28;20675;-68
2022/10/28 06:32:13;;;;;;;8.07;4.85;;;17.20;99.90;;;;;;5053387;28;20178;-68
2022/10/28 06:34:38;;;;;;;7.93;4.75;;;17.30;99.90;;;;;;5052111;28;20200;-69
2022/10/28 06:37:06;;;;;;;12.90;5.13;;;17.30;99.90;;;;;;5053279;28;20257;-69
2022/10/28 06:39:32;;;;;;;11.52;4.32;;;17.30;99.90;;;;;;5053142;28;20616;-68
2022/10/28 06:41:57;;;;;;;7.53;4.57;;;17.20;99.90;;;;;;5051819;28;20186;-69
2022/10/28 06:44:23;;;;;;;11.23;5.10;;;17.20;99.90;;;;;;5053106;28;20617;-68
2022/10/28 06:46:49;;;;;;;10.82;4.38;;;17.10;99.90;;;;;;5051652;28;20247;-69
2022/10/28 06:49:14;;;;;;;10.98;4.68;;;17.00;99.90;;;;;;5055487;28;20647;-69
2022/10/28 06:51:40;;;;;;;12.65;4.65;;;17.00;99.90;;;;;;5057414;28;20249;-68
2022/10/28 06:54:06;;;;;;;11.05;4.88;;;16.90;99.90;;;;;;5057204;28;20181;-68
2022/10/28 06:56:32;;;;;;;9.63;5.32;;;17.00;99.90;;;;;;5055774;28;20649;-69
2022/10/28 06:58:57;;;;;;;11.43;5.20;;;16.90;99.90;;;;;;5055418;28;20194;-64
2022/10/28 07:01:23;;;;;;;9.55;4.63;;;16.90;99.90;;;;;;5055678;28;20541;-64
2022/10/28 07:03:49;;;;;;;11.20;4.88;;;16.90;99.90;;;;;;5056916;28;20185;-64
2022/10/28 07:06:15;;;;;;;9.50;4.80;;;16.90;99.90;;;;;;5057508;28;20210;-63
2022/10/28 07:08:41;;;;;;;11.43;5.05;;;16.90;99.90;;;;;;5057026;28;20179;-63
2022/10/28 07:11:07;;;;;;;8.60;5.18;;;16.90;99.90;;;;;;5055444;28;20224;-63
2022/10/28 07:13:33;;;;;;;9.60;5.20;;;16.90;99.90;;;;;;5057223;28;20237;-65
2022/10/28 07:16:00;;;;;;;11.70;5.03;;;16.90;99.90;;;;;;5056404;28;20328;-63
2022/10/28 07:18:28;;;;;;;12.40;4.88;;;17.00;99.90;;;;;;5056646;28;20201;-63
2022/10/28 07:20:56;;;;;;;14.10;5.07;;;17.10;99.90;;;;;;5056810;28;20170;-63
2022/10/28 07:23:22;;;;;;;10.07;4.72;;;17.20;99.90;;;;;;5056414;28;20175;-63
2022/10/28 07:25:55;;;;;;;9.43;4.78;;;17.30;99.90;;;;;;5056289;28;20194;-63
2022/10/28 07:28:22;;;;;;;6.90;4.30;;;17.40;99.90;;;;;;5055115;28;20182;-63
2022/10/28 07:30:48;;;;;;;6.80;4.53;;;17.40;99.90;;;;;;5054799;28;20210;-64
2022/10/28 07:33:14;;;;;;;15.30;4.90;;;17.40;99.90;;;;;;5056845;28;20194;-63
2022/10/28 07:35:41;;;;;;;10.13;5.15;;;17.40;99.90;;;;;;5055681;28;20256;-63
2022/10/28 07:38:07;;;;;;;16.48;4.80;;;17.40;99.90;;;;;;5056087;28;20185;-63
2022/10/28 07:40:33;;;;;;;16.45;5.03;;;17.40;99.90;;;;;;5056531;28;20175;-66
2022/10/28 07:42:59;;;;;;;12.23;5.05;;;17.50;99.90;;;;;;5056511;28;20511;-67
2022/10/28 07:45:25;;;;;;;12.45;4.32;;;17.60;99.90;;;;;;5056117;28;20194;-67
2022/10/28 07:47:51;;;;;;;9.88;4.60;;;17.70;99.90;;;;;;5056171;28;20198;-67
2022/10/28 07:50:17;;;;;;;10.05;4.85;;;17.80;99.90;;;;;;5056450;28;20178;-68
2022/10/28 07:52:42;;;;;;;8.05;4.55;;;17.90;99.90;;;;;;5054729;28;20184;-68
2022/10/28 07:55:09;;;;;;;13.75;4.90;;;18.00;99.90;;;;;;5054522;28;20560;-67
2022/10/28 07:57:35;;;;;;;14.15;4.97;;;18.10;99.90;;;;;;5054288;28;20206;-67
2022/10/28 08:00:02;;;;;;;9.75;4.53;;;18.30;99.90;;;;;;5055374;28;20181;-69
2022/10/28 08:02:27;;;;;;;11.00;4.55;;;18.40;99.90;;;;;;5054495;28;20252;-69
2022/10/28 08:04:54;;;;;;;10.40;4.53;;;18.50;99.90;;;;;;5055748;28;20225;-68
2022/10/28 08:07:20;;;;;;;8.73;4.32;;;18.80;99.90;;;;;;5053162;28;20209;-67
2022/10/28 08:09:46;;;;;;;11.07;5.03;;;18.80;99.90;;;;;;5052583;28;20171;-67
2022/10/28 08:12:13;;;;;;;13.07;4.80;;;18.90;99.90;;;;;;5053024;28;20269;-68
2022/10/28 08:14:39;;;;;;;15.20;4.95;;;18.90;99.90;;;;;;5055374;28;20205;-68
2022/10/28 08:17:05;;;;;;;10.90;4.72;;;19.00;99.90;;;;;;5055362;28;20178;-68
2022/10/28 08:19:30;;;;;;;15.90;4.93;;;19.10;99.90;;;;;;5055416;28;20205;-68
2022/10/28 08:21:56;;;;;;;15.27;4.40;;;19.20;99.90;;;;;;5055363;28;20650;-68
2022/10/28 08:24:22;;;;;;;9.32;4.25;;;19.40;99.90;;;;;;5053991;28;20204;-68
2022/10/28 08:26:49;;;;;;;12.55;4.50;;;19.50;99.90;;;;;;5054901;28;20290;-68
2022/10/28 08:29:15;;;;;;;9.48;4.55;;;19.60;99.90;;;;;;5053954;28;20171;-68
2022/10/28 08:31:40;;;;;;;12.63;4.60;;;19.60;99.90;;;;;;5054050;28;20540;-68
2022/10/28 08:34:07;;;;;;;14.55;4.53;;;19.70;99.90;;;;;;5055158;28;20182;-68
2022/10/28 08:36:32;;;;;;;13.15;4.72;;;19.70;99.90;;;;;;5055463;28;20171;-68
2022/10/28 08:39:00;;;;;;;8.07;4.45;;;19.70;99.90;;;;;;5055169;28;20178;-68
2022/10/28 08:41:37;;;;;;;9.73;5.30;;;19.80;99.90;;;;;;5052154;28;20203;-68
2022/10/28 08:44:33;;;;;;;11.40;4.97;;;19.80;99.90;;;;;;5035050;28;20166;-68
2022/10/28 08:47:17;;;;;;;10.73;4.15;;;19.80;99.90;;;;;;5035205;28;20191;-68
2022/10/28 08:49:45;;;;;;;10.52;5.10;;;19.90;99.90;;;;;;5034948;28;20167;-68
2022/10/28 08:52:30;;;;;;;13.27;4.72;;;19.90;99.90;;;;;;5033547;28;20179;-68
2022/10/28 08:55:06;;;;;;;12.50;5.32;;;20.00;99.90;;;;;;5034744;28;20191;-68
2022/10/28 08:57:37;;;;;;;13.48;4.72;;;20.00;99.90;;;;;;5034785;28;20182;-68
2022/10/28 09:00:15;;;;;;;16.10;4.38;;;20.10;99.90;;;;;;5033503;28;20175;-68
2022/10/28 09:03:13;;;;;;;14.90;4.55;;;20.10;99.90;;;;;;5035044;28;20684;-68
2022/10/28 09:05:42;;;;;;;11.32;4.38;;;20.00;99.90;;;;;;5034531;28;20612;-68
2022/10/28 09:08:30;;;;;;;10.80;5.38;;;19.90;99.90;;;;;;5034825;28;20725;-68
2022/10/28 09:11:07;;;;;;;10.18;4.85;;;19.90;99.90;;;;;;5033758;28;20175;-68
2022/10/28 09:13:36;;;;;;;12.43;4.63;;;19.90;99.90;;;;;;5034928;28;20164;-68
2022/10/28 09:16:21;;;;;;;9.40;4.13;;;19.80;99.90;;;;;;5034545;28;20191;-68
2022/10/28 09:18:55;;;;;;;11.45;4.72;;;19.80;99.90;;;;;;5034412;28;20147;-68
2022/10/28 09:21:39;;;;;;;13.82;4.55;;;19.90;99.90;;;;;;5033089;28;20598;-68
2022/10/28 09:24:19;;;;;;;14.02;4.25;;;19.90;99.90;;;;;;5032855;28;20167;-68
2022/10/28 09:27:01;;;;;;;10.32;4.32;;;20.10;99.90;;;;;;5034231;28;20191;-68
2022/10/28 09:29:48;;;;;;;15.55;5.18;;;20.20;99.90;;;;;;5032907;28;20167;-68
2022/10/28 09:32:37;;;;;;;14.40;4.68;;;20.30;99.90;;;;;;5034122;28;20683;-68
2022/10/28 09:35:12;;;;;;;15.50;4.80;;;20.50;99.90;;;;;;5028919;28;20347;-68
2022/10/28 09:37:46;;;;;;;11.65;4.68;;;20.70;99.90;;;;;;5034343;28;20634;-68
2022/10/28 09:40:20;;;;;;;13.30;4.03;;;20.90;99.90;;;;;;5034067;28;20158;-68
2022/10/28 09:43:14;;;;;;;12.40;4.80;;;21.00;99.90;;;;;;5048024;28;20190;-68
2022/10/28 09:45:45;;;;;;;14.90;4.70;;;21.10;99.90;;;;;;5053140;28;20213;-68
2022/10/28 09:48:21;;;;;;;14.25;4.63;;;21.10;99.90;;;;;;5054079;28;20194;-68
2022/10/28 09:50:50;;;;;;;15.55;4.75;;;21.10;99.90;;;;;;5054834;28;20525;-68
2022/10/28 09:53:39;;;;;;;14.43;4.90;;;21.20;99.90;;;;;;5053848;28;20173;-68
2022/10/28 09:56:05;;;;;;;16.02;4.60;;;21.30;99.90;;;;;;5053530;28;20190;-64
2022/10/28 09:58:33;;;;;;;16.60;5.53;;;21.40;99.90;;;;;;5053600;28;20197;-68
2022/10/28 10:00:59;;;;;;;8.93;4.15;;;21.60;99.90;;;;;;5053636;28;20257;-68
2022/10/28 10:03:25;;;;;;;18.30;5.43;;;21.70;99.90;;;;;;5053899;28;20174;-68
2022/10/28 10:05:54;;;;;;;11.77;3.80;;;21.80;99.90;;;;;;5054221;28;20197;-68
2022/10/28 10:08:21;;;;;;;14.40;4.65;;;21.90;99.90;;;;;;5053727;28;20194;-68
2022/10/28 10:10:59;;;;;;;8.75;3.95;;;22.00;99.90;;;;;;5053790;28;20173;-68
2022/10/28 10:13:34;;;;;;;17.55;3.88;;;22.00;99.90;;;;;;5052112;28;20190;-68
2022/10/28 10:16:05;;;;;;;13.57;4.25;;;22.10;99.90;;;;;;5052059;28;20666;-68
2022/10/28 10:18:34;;;;;;;11.77;3.90;;;22.30;99.90;;;;;;5053624;28;20158;-68
2022/10/28 10:21:00;;;;;;;16.33;4.60;;;22.40;99.90;;;;;;5053683;28;20151;-68
2022/10/28 10:23:30;;;;;;;11.88;4.05;;;22.50;99.90;;;;;;5051993;28;20165;-67
2022/10/28 10:26:11;;;;;;;14.15;4.32;;;22.60;99.90;;;;;;5053159;28;20200;-68
2022/10/28 10:28:44;;;;;;;11.50;4.07;;;22.60;99.90;;;;;;5053523;28;20194;-68
2022/10/28 10:31:25;;;;;;;11.98;4.13;;;22.70;99.90;;;;;;5052222;28;20534;-68
2022/10/28 10:33:54;;;;;;;14.70;4.15;;;22.70;99.90;;;;;;5053538;28;20182;-68
2022/10/28 10:36:27;;;;;;;13.55;4.03;;;22.70;99.90;;;;;;5053398;28;20198;-68
2022/10/28 10:38:55;;;;;;;11.77;4.50;;;22.60;99.90;;;;;;5053568;28;20155;-68
2022/10/28 10:41:41;;;;;;;10.90;3.90;;;22.70;99.90;;;;;;5053178;28;20231;-68
2022/10/28 10:44:19;;;;;;;12.98;4.10;;;22.60;99.90;;;;;;5053322;28;20615;-68
2022/10/28 10:46:46;;;;;;;16.60;4.43;;;22.50;99.90;;;;;;5051689;28;20611;-68
2022/10/28 10:49:14;;;;;;;15.13;5.00;;;22.60;99.90;;;;;;5052938;28;20178;-69
2022/10/28 10:52:13;;;;;;;14.85;4.32;;;22.70;99.90;;;;;;5052790;28;20166;-68
2022/10/28 10:54:39;;;;;;;17.40;4.80;;;22.70;99.90;;;;;;5052732;28;20214;-68
2022/10/28 10:57:18;;;;;;;16.40;4.70;;;22.60;99.90;;;;;;5052520;28;20182;-68
2022/10/28 10:59:46;;;;;;;17.40;4.13;;;22.60;99.90;;;;;;5053346;28;20710;-68
2022/10/28 11:02:33;;;;;;;14.90;4.30;;;22.70;99.90;;;;;;5051758;28;20182;-68
2022/10/28 11:05:06;;;;;;;13.55;4.68;;;22.60;99.90;;;;;;5052781;28;20666;-68
2022/10/28 11:07:32;;;;;;;13.70;4.22;;;22.60;99.90;;;;;;5052949;28;20213;-68
2022/10/28 11:09:59;;;;;;;11.48;3.58;;;22.60;99.90;;;;;;5052975;28;20170;-68
2022/10/28 11:12:34;;;;;;;15.25;4.90;;;22.60;99.90;;;;;;5052665;28;20186;-68
2022/10/28 11:15:10;;;;;;;17.38;4.85;;;22.60;99.90;;;;;;5051349;28;20269;-68
2022/10/28 11:17:36;;;;;;;10.45;4.03;;;22.70;99.90;;;;;;5051334;28;20639;-68
2022/10/28 11:20:29;;;;;;;10.95;4.00;;;22.80;99.90;;;;;;5052725;28;20190;-68
2022/10/28 11:23:24;;;;;;;12.75;3.65;;;22.90;99.90;;;;;;5052858;28;20530;-68
2022/10/28 11:25:53;;;;;;;18.27;4.45;;;22.90;99.90;;;;;;5052625;28;20190;-68
2022/10/28 11:29:01;;;;;;;15.90;4.25;;;23.00;99.90;;;;;;5052386;28;20194;-68
2022/10/28 11:31:55;;;;;;;13.55;3.70;;;22.90;99.90;;;;;;5052583;28;20159;-68
2022/10/28 11:34:43;;;;;;;11.80;4.00;;;23.00;99.90;;;;;;5053244;28;20198;-68
2022/10/28 11:37:33;;;;;;;16.15;4.32;;;23.10;99.90;;;;;;5056176;28;20166;-68
2022/10/28 11:40:09;;;;;;;9.05;3.85;;;23.20;99.90;;;;;;5054789;28;20202;-68
2022/10/28 11:43:11;;;;;;;12.55;4.32;;;23.40;99.90;;;;;;5055896;28;20201;-68
2022/10/28 11:45:54;;;;;;;12.55;4.07;;;23.30;99.90;;;;;;5056344;28;20272;-68
2022/10/28 11:48:57;;;;;;;10.95;4.07;;;23.40;99.90;;;;;;5055930;28;20187;-68
2022/10/28 11:52:01;;;;;;;14.02;4.05;;;23.30;99.90;;;;;;5054611;28;20542;-67
2022/10/28 11:54:56;;;;;;;9.60;4.38;;;23.30;99.90;;;;;;5054469;28;20206;-68
2022/10/28 11:58:02;;;;;;;14.65;4.20;;;23.50;99.90;;;;;;5050554;28;20218;-68
2022/10/28 12:00:47;;;;;;;12.98;4.30;;;23.60;99.90;;;;;;5054455;28;20249;-68
2022/10/28 12:03:43;;;;;;;13.07;3.80;;;23.60;99.90;;;;;;5055867;28;20162;-68
2022/10/28 12:06:39;;;;;;;16.20;3.95;;;23.60;99.90;;;;;;5054338;28;20205;-68
2022/10/28 12:09:19;;;;;;;14.55;4.32;;;23.60;99.90;;;;;;5056146;28;20521;-68
2022/10/28 12:11:45;;;;;;;11.02;4.20;;;23.60;99.90;;;;;;5055420;28;20186;-68
2022/10/28 12:14:17;;;;;;;12.45;3.78;;;23.70;99.90;;;;;;5055442;28;20159;-68
2022/10/28 12:16:51;;;;;;;15.48;4.30;;;23.80;99.90;;;;;;5055475;28;20684;-68
2022/10/28 12:19:23;;;;;;;12.70;4.07;;;23.80;99.90;;;;;;5055481;28;20560;-68
2022/10/28 12:21:55;;;;;;;13.52;4.93;;;23.80;99.90;;;;;;5055277;28;20178;-68
2022/10/28 12:24:24;;;;;;;14.77;4.85;;;23.80;99.90;;;;;;5055367;28;20248;-68
2022/10/28 12:26:56;;;;;;;13.95;4.45;;;23.80;99.90;;;;;;5054924;28;20671;-68
2022/10/28 12:29:22;;;;;;;14.50;4.25;;;23.80;99.90;;;;;;5055484;28;20169;-68
2022/10/28 12:31:54;;;;;;;10.65;3.78;;;23.70;99.90;;;;;;5055135;28;20170;-68
2022/10/28 12:34:30;;;;;;;16.63;3.75;;;23.80;99.90;;;;;;5055055;28;20190;-68
2022/10/28 12:37:08;;;;;;;15.35;4.32;;;23.90;99.90;;;;;;5055038;28;20158;-68
2022/10/28 12:39:40;;;;;;;13.43;4.40;;;24.00;99.90;;;;;;5053841;28;20170;-69
2022/10/28 12:42:32;;;;;;;12.85;4.20;;;24.20;99.90;;;;;;5054883;28;20189;-68
2022/10/28 12:45:02;;;;;;;16.85;4.30;;;24.30;99.90;;;;;;5054052;28;20685;-68
2022/10/28 12:47:38;;;;;;;13.18;4.05;;;24.40;99.90;;;;;;5054899;28;20683;-68
2022/10/28 12:50:07;;;;;;;14.70;4.55;;;24.30;99.90;;;;;;5055085;28;20161;-68
2022/10/28 12:53:17;;;;;;;8.77;3.75;;;24.30;99.90;;;;;;5054704;28;20249;-68
2022/10/28 12:56:01;;;;;;;16.00;4.43;;;24.40;99.90;;;;;;5032485;28;20199;-68
2022/10/28 12:58:29;;;;;;;10.98;3.85;;;24.50;99.90;;;;;;5053971;28;20671;-68
2022/10/28 13:01:17;;;;;;;18.33;4.15;;;24.60;99.90;;;;;;5054530;28;20175;-69
2022/10/28 13:03:43;;;;;;;15.45;4.72;;;24.70;99.90;;;;;;5054792;28;20159;-66